Portada
METAR-TAF:

METAR-TAF

Aeroports :

N'Djamena, Txad

latitud: 12-08N, longitud: 015-02E, altitud: 295 m

Observació

L'informe es va fer fa 1 hora i 19 minuts, a les 00:00 UTC
Vent 5 kt del Nord/Nord-Oest
Temperatura 31°C
Humitat 24%
Pressió 1005 hPa
Visibilitat: 6000 m

METAR: FTTJ 300000Z 34005KT 6000 NSC 31/08 Q1005 NOSIG

Hora: 02:19 (01:19 UTC)

Pronòstic

L'informe es va fer fa 2 hores i 19 minuts, a les 23:00 UTC
Pronòstic vàlid del 30 a les 00 UTC al 31 a les 06 UTC
Vent 5 kt del Nord-Oest
Visibilitat: 6000 m
Temporalment
l' 30 a les 06 UTC al 30 a les 12 UTC
Visibilitat: 4000 m
calitja
Temporalment
l' 30 a les 13 UTC al 30 a les 18 UTC
Vent 10 kt del Sud/Sud-Est

TAF: FTTJ 292300Z 3000/3106 32005KT 6000 NSC TEMPO 3006/3012 4000 HZ TEMPO 3013/3018 16010KT

Observacions i pronòstics meteorològics de més de 4000 aeroports (METAR i TAF).

Les estacions disponibles són els punts grocs i vermells al mapa.

Posi el ratolí al punt desitjat per veure el nom de l'estació.

Feu clic per veure les observacions i els pronòstics meteorològics.

Per canviar el mapa: feu clic els botons verds amb una creu de color negre per apropar; al botó verd amb un guió per allunyar la imatge; o en les fletxes verdes per a mapes adjacents.


METAR-TAF: